Mus Tur-Air Force Base, Turkey

11:14 AM EEST on August 28, 2014 (GMT +0300)
Mus Air Base | Change Station
CLOSE
Current Station
Airport
Location: Mus,
Elevation: 4154 ft
Nearby Weather Stations

Elev 4154 ft 38.75 °N, 41.66 °E | Updated 24 minutes ago

Partly Cloudy
Partly Cloudy
90 °F
Feels Like 90 °F
N
4
Wind Variable Wind from ESE

Today
High -- | Low -- °F
--% Chance of Precip.
Yesterday
High -- | Low -- °F
Precip. -- in
5:38 AM 6:50 PM
Waxing Crescent, 7% visible
Pressure 29.98 in
Visibility 6.2 miles
Clouds Few 3500 ft
Dew Point 34 °F
Humidity 14%
Rainfall 0.00 in
Snow Depth Not available.
UV 8 out of 12
Pollen Not available.
Air Quality Not available.
Flu Activity Not available.
METAR LTCK 280750Z 11003KT 040V200 9999 FEW035 32/01 Q1015

More Conditions Fewer Conditions

Pressure 29.98 in
Visibility 6.2 miles
Clouds Few 3500 ft
Dew Point 34 °F
Humidity 14%
Rainfall 0.00 in
Snow Depth Not available.
UV 8 out of 12
Pollen Not available.
Air Quality Not available.
Flu Activity Not available.
METAR LTCK 280750Z 11003KT 040V200 9999 FEW035 32/01 Q1015

More Conditions Fewer Conditions

10-Day Weather Forecast

Almanac

Astronomy

Aug. 28, 2014 Rise Set
Actual Time 5:38 AM EEST 6:50 PM EEST
Civil Twilight 5:11 AM EEST 7:17 PM EEST
Nautical Twilight 4:38 AM EEST 7:50 PM EEST
Astronomical Twilight 4:03 AM EEST 8:24 PM EEST
Moon 8:08 AM EEST 8:04 PM EEST
Length of Visible Light 14h 06m
Length of Day
13h 11m
Tomorrow will be 2m 24s shorter.
Waxing Crescent, 7% of the Moon is Illuminated
Today
Waxing Crescent
Sep 2
First Quarter
Sep 8
Full
Sep 15
Last Quarter
Sep 24
New

Yesterday's Extremes

Country Highs Country Lows

Community

WunderPhotos

Upload Photos

1,747,918 photos uploaded!

Nearby

Snow Depth

Not available.

Earthquake Activity

City Distance Mag. Time & Date
No recent earthquake activity has been reported nearby.
Minimum magnitude displayed is 2.5.

Coastal Water Temperatures

Place Temperature
No Stations Reporting

Nearby Weather Stations